CheckWX is a tool to help pilots better visualize weather data.  It is not intended as a substitute for an official pre-flight weather briefing.

23:28:35 UTC

KLGA TAF
Laguardia Airport
New York, New York, USA
KLGA 122043Z 1221/1324 VRB05KT P6SM BKN250 FM122200 16005KT P6SM BKN250 FM130500 15005KT P6SM SCT030 BKN250 FM130800 13005KT P6SM BKN030 FM131400 08006KT P6SM FEW012 BKN020 PROB30 1316/1321 5SM -RA OVC010 FM132100 10006KT 3SM RA BR OVC010

Dec-12@
21:00 UTC

Dec-12 @ 21:00 UTC

Dec-12@
22:00 UTC

Dec-12 @ 22:00 UTC

KLGA 122043Z 1221/1324 VRB05KT P6SM BKN250

Expired

Wind
  • Variable at 5 KTS
Cloud Levels
  • Broken at 25,000' AGL

Dec-12@
22:00 UTC

Dec-12 @ 22:00 UTC

Dec-13@
05:00 UTC

Dec-13 @ 05:00 UTC

FM122200 16005KT P6SM BKN250

From

From Standard forecast or significant change

Wind
  • 160° at 5 KTS
Cloud Levels
  • Broken at 25,000' AGL

Dec-13@
05:00 UTC

Dec-13 @ 05:00 UTC

Dec-13@
08:00 UTC

Dec-13 @ 08:00 UTC

FM130500 15005KT P6SM SCT030 BKN250

From

From Standard forecast or significant change

Wind
  • 150° at 5 KTS
Cloud Levels
  • Scattered at 3,000' AGL
  • Broken at 25,000' AGL

Dec-13@
08:00 UTC

Dec-13 @ 08:00 UTC

Dec-13@
14:00 UTC

Dec-13 @ 14:00 UTC

FM130800 13005KT P6SM BKN030

From

From Standard forecast or significant change

Wind
  • 130° at 5 KTS
Cloud Levels
  • Broken at 3,000' AGL

Dec-13@
14:00 UTC

Dec-13 @ 14:00 UTC

Dec-13@
21:00 UTC

Dec-13 @ 21:00 UTC

FM131400 08006KT P6SM FEW012 BKN020

From

From Standard forecast or significant change

Wind
  • 080° at 6 KTS
Cloud Levels
  • Few at 1,200' AGL
  • Broken at 2,000' AGL

Dec-13@
16:00 UTC

Dec-13 @ 16:00 UTC

Dec-13@
21:00 UTC

Dec-13 @ 21:00 UTC

PROB30 1316/1321 5SM -RA OVC010

Probable - 30% Likelihood

Probable - 30% Likelihood during this time.

Conditions
Light Rain
Cloud Levels
  • Overcast at 1,000' AGL

Dec-13@
21:00 UTC

Dec-13 @ 21:00 UTC

Dec-14@
00:00 UTC

Dec-14 @ 00:00 UTC

FM132100 10006KT 3SM RA BR OVC010

From

From Standard forecast or significant change

Wind
  • 100° at 6 KTS
Conditions
Rain, Mist
Cloud Levels
  • Overcast at 1,000' AGL